Terminal Aerodrome Forecast
Issued by NWS

Home | Current Version | Previous Version | Text Only | Print | Product List | Glossary On
Versions: 1 2 3 4 5 6 7 8 9 10 11 12
000
FTUS43 KFGF 230520
TAFDVL
TAF
KDVL 230520Z 2306/2406 12007KT P6SM BKN250
     FM231600 12010KT P6SM BKN060
     FM232200 12014KT P6SM SCT050
     FM232300 13013KT P6SM BKN045=

USA.gov is the U.S. government's official web portal to all federal, state and local government web resources and services.